sensor_id;sensor_type;location;lat;lon;timestamp;pressure;altitude;pressure_sealevel;temperature;humidity
62800;BME280;48842;51.046;13.796;2023-05-14T00:01:45;100726.81;;;16.20;56.58
62800;BME280;48842;51.046;13.796;2023-05-14T00:04:11;100724.22;;;16.18;56.07
62800;BME280;48842;51.046;13.796;2023-05-14T00:06:36;100732.19;;;16.15;56.64
62800;BME280;48842;51.046;13.796;2023-05-14T00:09:02;100723.38;;;16.13;56.72
62800;BME280;48842;51.046;13.796;2023-05-14T00:11:28;100719.00;;;16.12;56.24
62800;BME280;48842;51.046;13.796;2023-05-14T00:13:53;100724.28;;;16.12;56.52
62800;BME280;48842;51.046;13.796;2023-05-14T00:16:18;100715.44;;;16.13;56.52
62800;BME280;48842;51.046;13.796;2023-05-14T00:18:44;100719.81;;;16.16;56.51
62800;BME280;48842;51.046;13.796;2023-05-14T00:21:09;100711.00;;;16.17;56.83
62800;BME280;48842;51.046;13.796;2023-05-14T00:23:34;100708.41;;;16.15;57.16
62800;BME280;48842;51.046;13.796;2023-05-14T00:26:00;100709.22;;;16.17;56.73
62800;BME280;48842;51.046;13.796;2023-05-14T00:28:25;100703.06;;;16.18;56.53
62800;BME280;48842;51.046;13.796;2023-05-14T00:30:50;100699.53;;;16.16;56.41
62800;BME280;48842;51.046;13.796;2023-05-14T00:33:16;100698.69;;;16.16;56.52
62800;BME280;48842;51.046;13.796;2023-05-14T00:35:41;100698.69;;;16.16;56.40
62800;BME280;48842;51.046;13.796;2023-05-14T00:38:06;100699.53;;;16.16;56.60
62800;BME280;48842;51.046;13.796;2023-05-14T00:40:31;100692.53;;;16.15;56.44
62800;BME280;48842;51.046;13.796;2023-05-14T00:42:57;100687.25;;;16.15;56.99
62800;BME280;48842;51.046;13.796;2023-05-14T00:45:22;100696.91;;;16.16;56.40
62800;BME280;48842;51.046;13.796;2023-05-14T00:47:48;100689.88;;;16.15;56.66
62800;BME280;48842;51.046;13.796;2023-05-14T00:50:14;100689.03;;;16.13;56.77
62800;BME280;48842;51.046;13.796;2023-05-14T00:52:40;100683.75;;;16.12;56.66
62800;BME280;48842;51.046;13.796;2023-05-14T00:55:06;100687.34;;;16.09;56.98
62800;BME280;48842;51.046;13.796;2023-05-14T00:57:33;100687.34;;;16.06;56.91
62800;BME280;48842;51.046;13.796;2023-05-14T00:59:58;100690.00;;;16.04;57.02
62800;BME280;48842;51.046;13.796;2023-05-14T01:02:24;100696.19;;;16.05;57.07
62800;BME280;48842;51.046;13.796;2023-05-14T01:04:50;100688.25;;;16.07;57.44
62800;BME280;48842;51.046;13.796;2023-05-14T01:07:25;100690.00;;;16.06;57.07
62800;BME280;48842;51.046;13.796;2023-05-14T01:10:16;100685.66;;;16.02;57.33
62800;BME280;48842;51.046;13.796;2023-05-14T01:15:49;100689.25;;;15.96;57.66
62800;BME280;48842;51.046;13.796;2023-05-14T01:18:17;100682.25;;;15.94;57.71
62800;BME280;48842;51.046;13.796;2023-05-14T01:20:44;100684.00;;;15.93;57.56
62800;BME280;48842;51.046;13.796;2023-05-14T01:23:10;100679.63;;;15.92;57.38
62800;BME280;48842;51.046;13.796;2023-05-14T01:25:35;100684.91;;;15.92;57.70
62800;BME280;48842;51.046;13.796;2023-05-14T01:28:18;100678.75;;;15.92;57.92
62800;BME280;48842;51.046;13.796;2023-05-14T01:31:02;100676.09;;;15.90;57.81
62800;BME280;48842;51.046;13.796;2023-05-14T01:33:32;100677.88;;;15.90;57.83
62800;BME280;48842;51.046;13.796;2023-05-14T01:35:58;100680.53;;;15.90;57.46
62800;BME280;48842;51.046;13.796;2023-05-14T01:38:25;100678.75;;;15.90;57.97
62800;BME280;48842;51.046;13.796;2023-05-14T01:40:54;100679.66;;;15.89;57.79
62800;BME280;48842;51.046;13.796;2023-05-14T01:43:21;100682.28;;;15.91;57.66
62800;BME280;48842;51.046;13.796;2023-05-14T01:45:46;100681.38;;;15.90;57.78
62800;BME280;48842;51.046;13.796;2023-05-14T01:48:12;100681.44;;;15.87;57.69
62800;BME280;48842;51.046;13.796;2023-05-14T01:50:37;100682.38;;;15.84;57.77
62800;BME280;48842;51.046;13.796;2023-05-14T01:53:02;100683.22;;;15.85;58.25
62800;BME280;48842;51.046;13.796;2023-05-14T01:55:28;100681.44;;;15.85;57.93
62800;BME280;48842;51.046;13.796;2023-05-14T01:57:53;100677.06;;;15.84;58.10
62800;BME280;48842;51.046;13.796;2023-05-14T02:00:19;100681.47;;;15.84;58.55
62800;BME280;48842;51.046;13.796;2023-05-14T02:02:45;100680.59;;;15.83;58.85
62800;BME280;48842;51.046;13.796;2023-05-14T02:05:11;100685.88;;;15.83;58.55
62800;BME280;48842;51.046;13.796;2023-05-14T02:07:36;100688.56;;;15.82;58.54
62800;BME280;48842;51.046;13.796;2023-05-14T02:10:01;100681.50;;;15.81;58.54
62800;BME280;48842;51.046;13.796;2023-05-14T02:12:27;100682.41;;;15.78;58.60
62800;BME280;48842;51.046;13.796;2023-05-14T02:14:52;100681.56;;;15.75;58.76
62800;BME280;48842;51.046;13.796;2023-05-14T02:17:17;100680.69;;;15.71;58.61
62800;BME280;48842;51.046;13.796;2023-05-14T02:19:43;100675.50;;;15.65;58.52
62800;BME280;48842;51.046;13.796;2023-05-14T02:22:08;100673.81;;;15.58;59.27
62800;BME280;48842;51.046;13.796;2023-05-14T02:24:33;100671.22;;;15.53;59.59
62800;BME280;48842;51.046;13.796;2023-05-14T02:26:59;100673.94;;;15.48;59.27
62800;BME280;48842;51.046;13.796;2023-05-14T02:29:25;100664.31;;;15.43;59.19
62800;BME280;48842;51.046;13.796;2023-05-14T02:31:50;100670.53;;;15.37;59.42
62800;BME280;48842;51.046;13.796;2023-05-14T02:34:15;100675.88;;;15.31;59.37
62800;BME280;48842;51.046;13.796;2023-05-14T02:36:41;100668.00;;;15.26;59.96
62800;BME280;48842;51.046;13.796;2023-05-14T02:39:06;100668.91;;;15.24;59.32
62800;BME280;48842;51.046;13.796;2023-05-14T02:41:31;100668.94;;;15.21;59.40
62800;BME280;48842;51.046;13.796;2023-05-14T02:43:57;100671.59;;;15.19;59.87
62800;BME280;48842;51.046;13.796;2023-05-14T02:46:22;100666.34;;;15.17;59.73
62800;BME280;48842;51.046;13.796;2023-05-14T02:48:47;100667.25;;;15.13;59.59
62800;BME280;48842;51.046;13.796;2023-05-14T02:51:12;100661.09;;;15.10;59.79
62800;BME280;48842;51.046;13.796;2023-05-14T02:53:38;100660.28;;;15.06;59.66
62800;BME280;48842;51.046;13.796;2023-05-14T02:56:03;100663.84;;;15.00;59.96
62800;BME280;48842;51.046;13.796;2023-05-14T02:58:28;100661.25;;;14.96;59.92
62800;BME280;48842;51.046;13.796;2023-05-14T03:00:54;100662.16;;;14.93;60.37
62800;BME280;48842;51.046;13.796;2023-05-14T03:03:19;100664.81;;;14.90;60.12
62800;BME280;48842;51.046;13.796;2023-05-14T03:05:45;100659.59;;;14.86;60.13
62800;BME280;48842;51.046;13.796;2023-05-14T03:08:10;100668.41;;;14.81;60.09
62800;BME280;48842;51.046;13.796;2023-05-14T03:10:35;100671.06;;;14.78;60.45
62800;BME280;48842;51.046;13.796;2023-05-14T03:13:01;100658.78;;;14.74;60.24
62800;BME280;48842;51.046;13.796;2023-05-14T03:15:26;100664.09;;;14.71;60.55
62800;BME280;48842;51.046;13.796;2023-05-14T03:17:51;100670.25;;;14.69;60.72
62800;BME280;48842;51.046;13.796;2023-05-14T03:20:17;100662.34;;;14.67;60.85
62800;BME280;48842;51.046;13.796;2023-05-14T03:22:42;100664.13;;;14.66;60.53
62800;BME280;48842;51.046;13.796;2023-05-14T03:25:08;100665.91;;;14.66;61.09
62800;BME280;48842;51.046;13.796;2023-05-14T03:27:33;100665.00;;;14.67;60.90
62800;BME280;48842;51.046;13.796;2023-05-14T03:29:58;100665.88;;;14.68;60.98
62800;BME280;48842;51.046;13.796;2023-05-14T03:32:24;100661.50;;;14.66;60.88
62800;BME280;48842;51.046;13.796;2023-05-14T03:34:49;100656.22;;;14.65;60.69
62800;BME280;48842;51.046;13.796;2023-05-14T03:37:15;100659.75;;;14.64;61.01
62800;BME280;48842;51.046;13.796;2023-05-14T03:39:40;100655.34;;;14.60;61.12
62800;BME280;48842;51.046;13.796;2023-05-14T03:42:05;100652.72;;;14.61;61.03
62800;BME280;48842;51.046;13.796;2023-05-14T03:44:30;100655.34;;;14.60;61.08
62800;BME280;48842;51.046;13.796;2023-05-14T03:46:56;100655.38;;;14.57;61.00
62800;BME280;48842;51.046;13.796;2023-05-14T03:49:21;100665.97;;;14.52;61.11
62800;BME280;48842;51.046;13.796;2023-05-14T03:51:46;100660.72;;;14.47;61.16
62800;BME280;48842;51.046;13.796;2023-05-14T03:54:11;100660.75;;;14.44;61.01
62800;BME280;48842;51.046;13.796;2023-05-14T03:56:37;100661.63;;;14.43;61.11
62800;BME280;48842;51.046;13.796;2023-05-14T03:59:02;100653.75;;;14.40;61.09
62800;BME280;48842;51.046;13.796;2023-05-14T04:01:27;100644.09;;;14.38;61.39
62800;BME280;48842;51.046;13.796;2023-05-14T04:03:52;100644.94;;;14.38;61.31
62800;BME280;48842;51.046;13.796;2023-05-14T04:06:18;100642.31;;;14.37;61.06
62800;BME280;48842;51.046;13.796;2023-05-14T04:08:43;100634.44;;;14.35;61.83
62800;BME280;48842;51.046;13.796;2023-05-14T04:11:08;100639.69;;;14.35;61.32
62800;BME280;48842;51.046;13.796;2023-05-14T04:13:34;100633.59;;;14.33;61.40
62800;BME280;48842;51.046;13.796;2023-05-14T04:15:59;100635.34;;;14.32;61.50
62800;BME280;48842;51.046;13.796;2023-05-14T04:18:25;100632.69;;;14.34;61.82
62800;BME280;48842;51.046;13.796;2023-05-14T04:20:50;100639.69;;;14.35;61.34
62800;BME280;48842;51.046;13.796;2023-05-14T04:23:15;100636.19;;;14.36;61.38
62800;BME280;48842;51.046;13.796;2023-05-14T04:25:40;100636.19;;;14.36;61.38
62800;BME280;48842;51.046;13.796;2023-05-14T04:28:06;100631.78;;;14.37;61.60
62800;BME280;48842;51.046;13.796;2023-05-14T04:30:31;100634.41;;;14.38;61.50
62800;BME280;48842;51.046;13.796;2023-05-14T04:32:56;100636.16;;;14.39;61.56
62800;BME280;48842;51.046;13.796;2023-05-14T04:35:22;100630.88;;;14.42;61.71
62800;BME280;48842;51.046;13.796;2023-05-14T04:37:47;100634.38;;;14.44;61.58
62800;BME280;48842;51.046;13.796;2023-05-14T04:40:13;100630.84;;;14.45;61.60
62800;BME280;48842;51.046;13.796;2023-05-14T04:42:40;100630.84;;;14.48;61.50
62800;BME280;48842;51.046;13.796;2023-05-14T04:45:06;100624.63;;;14.53;61.26
62800;BME280;48842;51.046;13.796;2023-05-14T04:47:33;100619.34;;;14.57;61.20
62800;BME280;48842;51.046;13.796;2023-05-14T04:49:58;100618.44;;;14.61;61.26
62800;BME280;48842;51.046;13.796;2023-05-14T04:52:23;100623.69;;;14.68;60.89
62800;BME280;48842;51.046;13.796;2023-05-14T04:54:49;100625.38;;;14.73;60.85
62800;BME280;48842;51.046;13.796;2023-05-14T04:57:14;100621.81;;;14.79;60.66
62800;BME280;48842;51.046;13.796;2023-05-14T04:59:39;100616.53;;;14.83;60.40
62800;BME280;48842;51.046;13.796;2023-05-14T05:02:05;100608.56;;;14.88;60.21
62800;BME280;48842;51.046;13.796;2023-05-14T05:04:30;100615.56;;;14.94;59.88
62800;BME280;48842;51.046;13.796;2023-05-14T05:06:55;100614.63;;;14.96;59.81
62800;BME280;48842;51.046;13.796;2023-05-14T05:09:21;100611.97;;;14.98;59.69
62800;BME280;48842;51.046;13.796;2023-05-14T05:11:46;100611.97;;;15.01;59.49
62800;BME280;48842;51.046;13.796;2023-05-14T05:14:11;100607.56;;;15.00;59.69
62800;BME280;48842;51.046;13.796;2023-05-14T05:16:36;100606.69;;;15.01;59.62
62800;BME280;48842;51.046;13.796;2023-05-14T05:19:02;100610.16;;;15.05;59.38
62800;BME280;48842;51.046;13.796;2023-05-14T05:21:27;100605.72;;;15.08;59.20
62800;BME280;48842;51.046;13.796;2023-05-14T05:23:52;100606.56;;;15.12;59.17
62800;BME280;48842;51.046;13.796;2023-05-14T05:26:17;100607.41;;;15.14;58.83
62800;BME280;48842;51.046;13.796;2023-05-14T05:28:43;100605.63;;;15.17;58.73
62800;BME280;48842;51.046;13.796;2023-05-14T05:31:08;100610.00;;;15.20;58.78
62800;BME280;48842;51.046;13.796;2023-05-14T05:33:34;100600.28;;;15.24;58.49
62800;BME280;48842;51.046;13.796;2023-05-14T05:35:59;100597.59;;;15.28;58.48
62800;BME280;48842;51.046;13.796;2023-05-14T05:38:24;100593.16;;;15.32;58.34
62800;BME280;48842;51.046;13.796;2023-05-14T05:40:50;100594.88;;;15.38;58.48
62800;BME280;48842;51.046;13.796;2023-05-14T05:43:16;100600.09;;;15.42;57.82
62800;BME280;48842;51.046;13.796;2023-05-14T05:45:41;100600.91;;;15.46;57.81
62800;BME280;48842;51.046;13.796;2023-05-14T05:48:07;100586.81;;;15.47;57.75
62800;BME280;48842;51.046;13.796;2023-05-14T05:50:32;100588.56;;;15.49;57.91
62800;BME280;48842;51.046;13.796;2023-05-14T05:52:57;100594.69;;;15.51;57.55
62800;BME280;48842;51.046;13.796;2023-05-14T05:55:23;100579.69;;;15.53;57.79
62800;BME280;48842;51.046;13.796;2023-05-14T05:57:49;100585.78;;;15.59;57.47
62800;BME280;48842;51.046;13.796;2023-05-14T06:00:14;100588.38;;;15.63;57.19
62800;BME280;48842;51.046;13.796;2023-05-14T06:02:41;100591.84;;;15.67;57.61
62800;BME280;48842;51.046;13.796;2023-05-14T06:05:07;100592.63;;;15.74;57.10
62800;BME280;48842;51.046;13.796;2023-05-14T06:07:33;100582.00;;;15.80;57.19
62800;BME280;48842;51.046;13.796;2023-05-14T06:09:58;100574.94;;;15.83;57.49
62800;BME280;48842;51.046;13.796;2023-05-14T06:12:23;100574.84;;;15.90;57.01
62800;BME280;48842;51.046;13.796;2023-05-14T06:14:49;100579.13;;;15.97;56.93
62800;BME280;48842;51.046;13.796;2023-05-14T06:17:14;100584.34;;;16.03;56.96
62800;BME280;48842;51.046;13.796;2023-05-14T06:19:39;100582.47;;;16.10;57.03
62800;BME280;48842;51.046;13.796;2023-05-14T06:22:05;100582.41;;;16.14;56.62
62800;BME280;48842;51.046;13.796;2023-05-14T06:24:30;100580.59;;;16.19;56.37
62800;BME280;48842;51.046;13.796;2023-05-14T06:26:55;100579.59;;;16.27;56.88
62800;BME280;48842;51.046;13.796;2023-05-14T06:29:21;100583.03;;;16.32;56.59
62800;BME280;48842;51.046;13.796;2023-05-14T06:31:46;100574.97;;;16.38;55.76
62800;BME280;48842;51.046;13.796;2023-05-14T06:34:11;100574.03;;;16.42;56.16
62800;BME280;48842;51.046;13.796;2023-05-14T06:36:36;100586.31;;;16.46;55.82
62800;BME280;48842;51.046;13.796;2023-05-14T06:39:02;100575.69;;;16.49;55.73
62800;BME280;48842;51.046;13.796;2023-05-14T06:41:27;100576.47;;;16.56;56.03
62800;BME280;48842;51.046;13.796;2023-05-14T06:43:53;100573.72;;;16.62;55.80
62800;BME280;48842;51.046;13.796;2023-05-14T06:46:19;100572.75;;;16.68;55.31
62800;BME280;48842;51.046;13.796;2023-05-14T06:48:45;100568.16;;;16.76;55.47
62800;BME280;48842;51.046;13.796;2023-05-14T06:51:10;100571.56;;;16.84;55.14
62800;BME280;48842;51.046;13.796;2023-05-14T06:53:37;100560.81;;;16.93;55.01
62800;BME280;48842;51.046;13.796;2023-05-14T06:56:02;100553.63;;;17.02;55.01
62800;BME280;48842;51.046;13.796;2023-05-14T06:58:27;100565.81;;;17.10;54.92
62800;BME280;48842;51.046;13.796;2023-05-14T07:00:53;100567.47;;;17.16;54.00
62800;BME280;48842;51.046;13.796;2023-05-14T07:03:18;100562.91;;;17.24;53.99
62800;BME280;48842;51.046;13.796;2023-05-14T07:05:43;100552.19;;;17.31;53.49
62800;BME280;48842;51.046;13.796;2023-05-14T07:08:10;100555.56;;;17.37;53.79
62800;BME280;48842;51.046;13.796;2023-05-14T07:10:36;100548.38;;;17.44;53.55
62800;BME280;48842;51.046;13.796;2023-05-14T07:13:01;100545.59;;;17.50;53.63
62800;BME280;48842;51.046;13.796;2023-05-14T07:15:27;100547.19;;;17.57;53.40
62800;BME280;48842;51.046;13.796;2023-05-14T07:17:53;100546.19;;;17.63;53.39
62800;BME280;48842;51.046;13.796;2023-05-14T07:20:18;100539.88;;;17.69;53.10
62800;BME280;48842;51.046;13.796;2023-05-14T07:22:44;100536.19;;;17.76;53.03
62800;BME280;48842;51.046;13.796;2023-05-14T07:25:09;100535.19;;;17.82;52.73
62800;BME280;48842;51.046;13.796;2023-05-14T07:27:35;100542.09;;;17.89;52.51
62800;BME280;48842;51.046;13.796;2023-05-14T07:30:00;100536.69;;;17.95;52.68
62800;BME280;48842;51.046;13.796;2023-05-14T07:32:25;100535.66;;;18.01;52.69
62800;BME280;48842;51.046;13.796;2023-05-14T07:34:50;100530.22;;;18.07;52.18
62800;BME280;48842;51.046;13.796;2023-05-14T07:37:16;100521.28;;;18.11;52.04
62800;BME280;48842;51.046;13.796;2023-05-14T07:39:41;100532.59;;;18.18;52.15
62800;BME280;48842;51.046;13.796;2023-05-14T07:42:06;100524.50;;;18.24;51.91
62800;BME280;48842;51.046;13.796;2023-05-14T07:44:31;100522.63;;;18.27;51.81
62800;BME280;48842;51.046;13.796;2023-05-14T07:46:57;100520.75;;;18.33;51.83
62800;BME280;48842;51.046;13.796;2023-05-14T07:49:22;100515.31;;;18.37;51.44
62800;BME280;48842;51.046;13.796;2023-05-14T07:51:47;100516.97;;;18.43;51.04
62800;BME280;48842;51.046;13.796;2023-05-14T07:54:13;100518.63;;;18.45;50.93
62800;BME280;48842;51.046;13.796;2023-05-14T07:56:38;100510.59;;;18.48;50.83
62800;BME280;48842;51.046;13.796;2023-05-14T07:59:03;100514.00;;;18.54;50.47
62800;BME280;48842;51.046;13.796;2023-05-14T08:01:28;100515.75;;;18.55;50.09
62800;BME280;48842;51.046;13.796;2023-05-14T08:03:55;100512.19;;;18.56;50.16
62800;BME280;48842;51.046;13.796;2023-05-14T08:06:20;100510.50;;;18.53;49.93
62800;BME280;48842;51.046;13.796;2023-05-14T08:08:46;100509.66;;;18.51;49.82
62800;BME280;48842;51.046;13.796;2023-05-14T08:11:12;100514.06;;;18.52;49.64
62800;BME280;48842;51.046;13.796;2023-05-14T08:13:37;100503.31;;;18.57;49.64
62800;BME280;48842;51.046;13.796;2023-05-14T08:16:02;100506.72;;;18.62;49.63
62800;BME280;48842;51.046;13.796;2023-05-14T08:18:27;100506.56;;;18.68;49.66
62800;BME280;48842;51.046;13.796;2023-05-14T08:20:53;100504.59;;;18.75;49.54
62800;BME280;48842;51.046;13.796;2023-05-14T08:23:18;100507.09;;;18.81;49.30
62800;BME280;48842;51.046;13.796;2023-05-14T08:25:43;100506.97;;;18.87;49.07
62800;BME280;48842;51.046;13.796;2023-05-14T08:28:08;100502.41;;;18.91;49.37
62800;BME280;48842;51.046;13.796;2023-05-14T08:30:34;100508.44;;;18.97;49.07
62800;BME280;48842;51.046;13.796;2023-05-14T08:32:59;100501.25;;;19.01;48.59
62800;BME280;48842;51.046;13.796;2023-05-14T08:35:24;100499.38;;;19.05;48.82
62800;BME280;48842;51.046;13.796;2023-05-14T08:37:50;100498.44;;;19.07;48.56
62800;BME280;48842;51.046;13.796;2023-05-14T08:40:16;100498.38;;;19.09;48.28
62800;BME280;48842;51.046;13.796;2023-05-14T08:42:42;100499.19;;;19.11;48.48
62800;BME280;48842;51.046;13.796;2023-05-14T08:45:17;100500.09;;;19.10;48.34
62800;BME280;48842;51.046;13.796;2023-05-14T08:47:47;100501.84;;;19.11;48.47
62800;BME280;48842;51.046;13.796;2023-05-14T08:50:16;100494.75;;;19.11;48.69
62800;BME280;48842;51.046;13.796;2023-05-14T08:52:42;100491.16;;;19.14;48.72
62800;BME280;48842;51.046;13.796;2023-05-14T08:55:08;100494.59;;;19.17;48.68
62800;BME280;48842;51.046;13.796;2023-05-14T08:57:34;100488.25;;;19.23;48.73
62800;BME280;48842;51.046;13.796;2023-05-14T09:00:01;100488.91;;;19.30;48.95
62800;BME280;48842;51.046;13.796;2023-05-14T09:02:31;100492.22;;;19.38;48.65
62800;BME280;48842;51.046;13.796;2023-05-14T09:04:58;100485.84;;;19.44;48.25
62800;BME280;48842;51.046;13.796;2023-05-14T09:07:25;100484.81;;;19.49;47.79
62800;BME280;48842;51.046;13.796;2023-05-14T09:09:50;100493.56;;;19.51;47.91
62800;BME280;48842;51.046;13.796;2023-05-14T09:12:16;100489.88;;;19.57;47.69
62800;BME280;48842;51.046;13.796;2023-05-14T09:14:41;100487.00;;;19.63;47.81
62800;BME280;48842;51.046;13.796;2023-05-14T09:17:07;100477.88;;;19.72;47.27
62800;BME280;48842;51.046;13.796;2023-05-14T09:19:32;100475.78;;;19.83;47.28
62800;BME280;48842;51.046;13.796;2023-05-14T09:21:57;100477.06;;;19.98;47.24
62800;BME280;48842;51.046;13.796;2023-05-14T09:24:26;100474.81;;;20.13;46.72
62800;BME280;48842;51.046;13.796;2023-05-14T09:26:56;100475.22;;;20.27;46.19
62800;BME280;48842;51.046;13.796;2023-05-14T09:29:28;100465.09;;;20.38;46.24
62800;BME280;48842;51.046;13.796;2023-05-14T09:31:55;100465.44;;;20.53;45.99
62800;BME280;48842;51.046;13.796;2023-05-14T09:34:28;100467.59;;;20.68;44.87
62800;BME280;48842;51.046;13.796;2023-05-14T09:37:05;100462.78;;;20.80;44.63
62800;BME280;48842;51.046;13.796;2023-05-14T09:39:32;100449.94;;;20.91;44.65
62800;BME280;48842;51.046;13.796;2023-05-14T09:41:58;100452.13;;;21.03;44.11
62800;BME280;48842;51.046;13.796;2023-05-14T09:44:24;100453.50;;;21.14;43.80
62800;BME280;48842;51.046;13.796;2023-05-14T09:46:50;100444.28;;;21.22;43.27
62800;BME280;48842;51.046;13.796;2023-05-14T09:49:15;100444.00;;;21.30;42.91
62800;BME280;48842;51.046;13.796;2023-05-14T09:51:41;100441.91;;;21.38;42.85
62800;BME280;48842;51.046;13.796;2023-05-14T09:54:07;100433.66;;;21.44;42.52
62800;BME280;48842;51.046;13.796;2023-05-14T09:56:33;100425.38;;;21.52;42.36
62800;BME280;48842;51.046;13.796;2023-05-14T09:58:59;100421.47;;;21.61;42.32
62800;BME280;48842;51.046;13.796;2023-05-14T10:01:25;100420.34;;;21.67;41.72
62800;BME280;48842;51.046;13.796;2023-05-14T10:03:52;100424.63;;;21.71;41.81
62800;BME280;48842;51.046;13.796;2023-05-14T10:06:22;100416.50;;;21.74;41.34
62800;BME280;48842;51.046;13.796;2023-05-14T10:08:55;100414.66;;;21.76;41.31
62800;BME280;48842;51.046;13.796;2023-05-14T10:11:23;100408.28;;;21.80;41.07
62800;BME280;48842;51.046;13.796;2023-05-14T10:14:12;100402.00;;;21.81;40.63
62800;BME280;48842;51.046;13.796;2023-05-14T10:16:52;100413.41;;;21.85;40.62
62800;BME280;48842;51.046;13.796;2023-05-14T10:19:19;100395.66;;;21.84;40.82
62800;BME280;48842;51.046;13.796;2023-05-14T10:21:52;100398.34;;;21.84;40.95
62800;BME280;48842;51.046;13.796;2023-05-14T10:24:17;100397.53;;;21.82;41.31
62800;BME280;48842;51.046;13.796;2023-05-14T10:26:43;100389.59;;;21.80;41.21
62800;BME280;48842;51.046;13.796;2023-05-14T10:29:09;100391.53;;;21.76;41.37
62800;BME280;48842;51.046;13.796;2023-05-14T10:31:52;100386.31;;;21.73;41.19
62800;BME280;48842;51.046;13.796;2023-05-14T10:34:37;100389.91;;;21.72;40.93
62800;BME280;48842;51.046;13.796;2023-05-14T10:37:31;100395.44;;;21.68;40.86
62800;BME280;48842;51.046;13.796;2023-05-14T10:42:25;100394.09;;;21.57;40.81
62800;BME280;48842;51.046;13.796;2023-05-14T10:45:02;100391.84;;;21.47;40.77
62800;BME280;48842;51.046;13.796;2023-05-14T10:47:30;100390.47;;;21.36;41.11
62800;BME280;48842;51.046;13.796;2023-05-14T10:50:01;100397.03;;;21.27;41.34
62800;BME280;48842;51.046;13.796;2023-05-14T10:52:27;100405.38;;;21.18;41.58
62800;BME280;48842;51.046;13.796;2023-05-14T10:54:55;100394.09;;;21.12;41.63
62800;BME280;48842;51.046;13.796;2023-05-14T10:57:24;100396.13;;;21.05;41.17
62800;BME280;48842;51.046;13.796;2023-05-14T10:59:55;100392.81;;;20.98;41.11
62800;BME280;48842;51.046;13.796;2023-05-14T11:05:02;100387.06;;;20.87;41.03
62800;BME280;48842;51.046;13.796;2023-05-14T11:07:35;100379.13;;;20.85;41.52
62800;BME280;48842;51.046;13.796;2023-05-14T11:10:12;100376.63;;;20.81;46.73
62800;BME280;48842;51.046;13.796;2023-05-14T11:12:40;100375.34;;;20.67;44.62
62800;BME280;48842;51.046;13.796;2023-05-14T11:15:07;100369.63;;;20.53;45.98
62800;BME280;48842;51.046;13.796;2023-05-14T11:17:34;100374.63;;;20.38;47.39
62800;BME280;48842;51.046;13.796;2023-05-14T11:20:00;100371.59;;;20.24;48.75
62800;BME280;48842;51.046;13.796;2023-05-14T11:22:26;100365.72;;;20.14;49.33
62800;BME280;48842;51.046;13.796;2023-05-14T11:24:51;100367.69;;;20.08;49.02
62800;BME280;48842;51.046;13.796;2023-05-14T11:27:17;100365.16;;;20.04;49.99
62800;BME280;48842;51.046;13.796;2023-05-14T11:29:44;100356.38;;;20.02;49.85
62800;BME280;48842;51.046;13.796;2023-05-14T11:32:10;100367.06;;;20.01;48.68
62800;BME280;48842;51.046;13.796;2023-05-14T11:34:35;100351.13;;;20.01;49.94
62800;BME280;48842;51.046;13.796;2023-05-14T11:37:04;100354.53;;;20.04;51.59
62800;BME280;48842;51.046;13.796;2023-05-14T11:39:30;100343.88;;;20.04;51.50
62800;BME280;48842;51.046;13.796;2023-05-14T11:41:58;100342.06;;;20.07;51.07
62800;BME280;48842;51.046;13.796;2023-05-14T11:44:23;100341.09;;;20.08;51.18
62800;BME280;48842;51.046;13.796;2023-05-14T11:46:58;100344.59;;;20.10;50.63
62800;BME280;48842;51.046;13.796;2023-05-14T11:49:24;100339.97;;;20.15;50.75
62800;BME280;48842;51.046;13.796;2023-05-14T11:51:55;100331.88;;;20.18;50.18
62800;BME280;48842;51.046;13.796;2023-05-14T11:54:20;100329.22;;;20.18;50.63
62800;BME280;48842;51.046;13.796;2023-05-14T11:56:50;100332.69;;;20.20;51.16
62800;BME280;48842;51.046;13.796;2023-05-14T11:59:16;100321.22;;;20.19;52.61
62800;BME280;48842;51.046;13.796;2023-05-14T12:01:43;100317.66;;;20.19;52.59
62800;BME280;48842;51.046;13.796;2023-05-14T12:04:08;100316.75;;;20.20;51.50
62800;BME280;48842;51.046;13.796;2023-05-14T12:06:33;100312.28;;;20.20;51.11
62800;BME280;48842;51.046;13.796;2023-05-14T12:08:59;100320.19;;;20.22;49.84
62800;BME280;48842;51.046;13.796;2023-05-14T12:11:29;100307.78;;;20.22;49.38
62800;BME280;48842;51.046;13.796;2023-05-14T12:13:55;100305.88;;;20.26;49.89
62800;BME280;48842;51.046;13.796;2023-05-14T12:16:20;100304.91;;;20.29;50.62
62800;BME280;48842;51.046;13.796;2023-05-14T12:18:45;100301.31;;;20.30;51.38
62800;BME280;48842;51.046;13.796;2023-05-14T12:21:10;100305.63;;;20.32;50.40
62800;BME280;48842;51.046;13.796;2023-05-14T12:23:37;100304.72;;;20.33;51.06
62800;BME280;48842;51.046;13.796;2023-05-14T12:26:07;100302.81;;;20.37;51.53
62800;BME280;48842;51.046;13.796;2023-05-14T12:28:33;100297.44;;;20.38;50.25
62800;BME280;48842;51.046;13.796;2023-05-14T12:30:58;100293.72;;;20.43;48.54
62800;BME280;48842;51.046;13.796;2023-05-14T12:33:25;100292.69;;;20.47;50.04
62800;BME280;48842;51.046;13.796;2023-05-14T12:35:54;100292.56;;;20.50;48.80
62800;BME280;48842;51.046;13.796;2023-05-14T12:38:26;100283.72;;;20.49;49.35
62800;BME280;48842;51.046;13.796;2023-05-14T12:40:51;100278.22;;;20.54;49.35
62800;BME280;48842;51.046;13.796;2023-05-14T12:43:17;100271.97;;;20.55;47.84
62800;BME280;48842;51.046;13.796;2023-05-14T12:45:42;100270.13;;;20.57;47.39